Dammeron Valley, Utah
Current Conditions -  °F | °C
As of 7:15 AM on Monday 24 Nov 2014 (Local Time) from KSGU Reporting Station
Clear Clear  
Wind Chill: 28°   Ceiling: Unl
Heat Index: 28°   Visibility: 10mi
Dew Point:   Wind: 0mph
Humidity: 40%   Direction: NA
Pressure: 30.34"   Gusts: NA
Location:  37.31°N, 113.66°W
Report Text: KSGU 241415Z AUTO 00000KT 10SM CLR M02/M14 A3034 RMK AO1
Loading
Personal Weather Stations






























Interactive Weather Map New forecast layout! Learn more

10-Day Weather Forecast

Advertisements
Track Severe Weather on mobile